createdAt,value
2016-10-11T00:00:12.406Z,96.45
2016-10-11T00:00:54.146Z,96.36
2016-10-11T00:01:36.001Z,96.45
2016-10-11T00:02:17.821Z,96.45
2016-10-11T00:02:59.620Z,96.41
2016-10-11T00:03:41.242Z,96.45
2016-10-11T00:04:23.021Z,96.12
2016-10-11T00:05:04.761Z,96.12
2016-10-11T00:05:46.433Z,96.22
2016-10-11T00:06:27.931Z,96.36
2016-10-11T00:08:43.135Z,96.36
2016-10-11T00:09:24.764Z,96.31
2016-10-11T00:10:06.429Z,96.64
2016-10-11T00:10:48.181Z,96.5
2016-10-11T00:11:29.777Z,96.12
2016-10-11T00:13:50.537Z,95.93
2016-10-11T00:14:32.383Z,96.17
2016-10-11T00:15:14.128Z,96.41
2016-10-11T00:15:55.580Z,96.31
2016-10-11T00:16:37.181Z,96.41
2016-10-11T00:17:18.941Z,95.93
2016-10-11T00:18:00.757Z,95.55
2016-10-11T00:18:42.511Z,96.22
2016-10-11T00:19:24.265Z,95.93
2016-10-11T00:20:05.770Z,95.65
2016-10-11T00:22:21.168Z,95.93
2016-10-11T00:23:02.880Z,96.03
2016-10-11T00:23:44.488Z,96.59
2016-10-11T00:25:44.494Z,96.41
2016-10-11T00:26:26.203Z,96.12
2016-10-11T00:27:07.952Z,96.41
2016-10-11T00:27:49.172Z,96.59
2016-10-11T00:28:29.710Z,96.41
2016-10-11T00:29:10.629Z,96.41
2016-10-11T00:31:25.588Z,96.69
2016-10-11T00:32:06.504Z,96.22
2016-10-11T00:32:47.711Z,96.22
2016-10-11T00:33:28.711Z,96.22
2016-10-11T00:34:09.241Z,96.41
2016-10-11T00:34:49.773Z,96.31
2016-10-11T00:35:30.318Z,96.22
2016-10-11T00:36:11.323Z,96.41
2016-10-11T00:36:52.907Z,96.59
2016-10-11T00:37:34.675Z,96.41
2016-10-11T00:39:49.906Z,96.31
2016-10-11T00:40:31.759Z,96.41
2016-10-11T00:41:13.442Z,96.59
2016-10-11T00:41:55.270Z,96.59
2016-10-11T00:42:37.030Z,96.59
2016-10-11T00:43:18.644Z,96.69
2016-10-11T00:44:00.216Z,96.5
2016-10-11T00:45:49.528Z,96.69
2016-10-11T00:46:31.299Z,97.17
2016-10-11T00:47:13.107Z,96.78
2016-10-11T00:47:54.756Z,97.07
2016-10-11T00:48:36.513Z,97.07
2016-10-11T00:50:51.888Z,96.88
2016-10-11T00:51:33.643Z,96.78
2016-10-11T00:52:15.394Z,96.78
2016-10-11T00:52:57.045Z,96.78
2016-10-11T00:53:38.834Z,96.78
2016-10-11T00:54:20.509Z,96.78
2016-10-11T00:55:02.225Z,96.59
2016-10-11T00:55:43.929Z,96.59
2016-10-11T00:57:38.578Z,96.59
2016-10-11T00:58:20.334Z,96.59
2016-10-11T00:59:02.042Z,96.88
2016-10-11T00:59:43.828Z,96.88
2016-10-11T01:00:25.535Z,96.59
2016-10-11T01:01:07.182Z,96.59
2016-10-11T01:01:48.905Z,96.69
2016-10-11T01:02:30.532Z,97.36
2016-10-11T01:04:19.481Z,97.17
2016-10-11T01:05:00.013Z,97.36
2016-10-11T01:05:40.541Z,97.74
2016-10-11T01:06:21.081Z,97.36
2016-10-11T01:07:01.620Z,97.55
2016-10-11T01:07:42.164Z,97.36
2016-10-11T01:08:22.696Z,97.55
2016-10-11T01:09:03.233Z,97.74
2016-10-11T01:09:43.766Z,97.64
2016-10-11T01:10:24.304Z,97.55
2016-10-11T01:11:04.833Z,97.36
2016-10-11T01:11:45.364Z,97.55
2016-10-11T01:12:25.901Z,97.36
2016-10-11T01:13:06.434Z,97.45
2016-10-11T01:13:46.962Z,97.74
2016-10-11T01:14:27.497Z,97.55
2016-10-11T01:15:08.033Z,98.11
2016-10-11T01:15:48.566Z,97.36
2016-10-11T01:16:29.105Z,97.36
2016-10-11T01:17:09.641Z,97.64
2016-10-11T01:17:50.179Z,97.45
2016-10-11T01:18:30.715Z,97.64
2016-10-11T01:19:11.252Z,97.02
2016-10-11T01:19:51.785Z,97.45
2016-10-11T01:20:32.312Z,97.45
2016-10-11T01:21:12.848Z,97.36
2016-10-11T01:21:53.382Z,97.36
2016-10-11T01:22:33.910Z,97.36
2016-10-11T01:23:14.455Z,97.31
2016-10-11T01:23:54.985Z,97.31
2016-10-11T01:24:35.521Z,97.17
2016-10-11T01:25:16.061Z,97.31
2016-10-11T01:25:56.595Z,97.4
2016-10-11T01:26:37.130Z,97.31
2016-10-11T01:27:17.655Z,97.31
2016-10-11T01:27:58.189Z,96.92
2016-10-11T01:28:38.726Z,97.55
2016-10-11T01:29:19.263Z,97.59
2016-10-11T01:29:59.805Z,97.59
2016-10-11T01:30:40.327Z,97.45
2016-10-11T01:31:20.858Z,97.88
2016-10-11T01:32:01.393Z,97.88
2016-10-11T01:32:41.927Z,97.88
2016-10-11T01:33:22.465Z,97.97
2016-10-11T01:34:03.003Z,97.97
2016-10-11T01:34:43.516Z,97.88
2016-10-11T01:35:24.052Z,97.97
2016-10-11T01:36:04.589Z,97.78
2016-10-11T01:36:45.125Z,97.4
2016-10-11T01:37:25.659Z,97.88
2016-10-11T01:38:06.186Z,97.78
2016-10-11T01:38:46.715Z,97.88
2016-10-11T01:39:27.250Z,97.78
2016-10-11T01:40:07.794Z,97.88
2016-10-11T01:40:48.327Z,97.69
2016-10-11T01:41:28.863Z,97.88
2016-10-11T01:42:09.397Z,97.97
2016-10-11T01:42:49.929Z,97.59
2016-10-11T01:43:30.467Z,97.88
2016-10-11T01:44:11.008Z,97.69
2016-10-11T01:44:51.546Z,97.78
2016-10-11T01:45:32.072Z,97.78
2016-10-11T01:46:12.612Z,98.07
2016-10-11T01:46:53.142Z,97.69
2016-10-11T01:47:33.682Z,97.97
2016-10-11T01:48:14.213Z,98.25
2016-10-11T01:48:54.749Z,97.78
2016-10-11T01:49:35.285Z,98.07
2016-10-11T01:50:15.820Z,98.07
2016-10-11T01:50:56.347Z,98.54
2016-10-11T01:51:36.887Z,98.16
2016-10-11T01:52:17.425Z,98.07
2016-10-11T01:52:57.961Z,97.69
2016-10-11T01:53:38.502Z,98.35
2016-10-11T01:54:19.030Z,98.25
2016-10-11T01:54:59.566Z,97.92
2016-10-11T01:55:40.096Z,98.16
2016-10-11T01:56:20.625Z,98.11
2016-10-11T01:57:01.163Z,98.59
2016-10-11T01:57:41.684Z,98.4
2016-10-11T01:58:22.221Z,98.3
2016-10-11T01:59:02.752Z,98.07
2016-10-11T01:59:43.284Z,98.11
2016-10-11T02:00:23.813Z,98.07
2016-10-11T02:01:04.349Z,98.21
2016-10-11T02:01:44.886Z,98.4
2016-10-11T02:02:25.408Z,98.54
2016-10-11T02:03:05.932Z,98.4
2016-10-11T02:03:46.470Z,98.21
2016-10-11T02:04:27.014Z,98.11
2016-10-11T02:05:07.548Z,98.3
2016-10-11T02:05:48.080Z,98.4
2016-10-11T02:06:28.616Z,98.4
2016-10-11T02:07:09.153Z,98.02
2016-10-11T02:07:49.682Z,98.3
2016-10-11T02:08:30.223Z,98.21
2016-10-11T02:09:10.765Z,98.21
2016-10-11T02:09:51.302Z,98.3
2016-10-11T02:10:31.840Z,98.4
2016-10-11T02:11:12.365Z,98.4
2016-10-11T02:11:52.910Z,98.4
2016-10-11T02:12:33.449Z,98.59
2016-10-11T02:13:13.987Z,98.78
2016-10-11T02:13:54.523Z,98.21
2016-10-11T02:14:35.067Z,98.59
2016-10-11T02:15:15.604Z,98.21
2016-10-11T02:15:56.140Z,98.4
2016-10-11T02:16:36.664Z,98.3
2016-10-11T02:17:17.201Z,98.97
2016-10-11T02:17:57.735Z,98.21
2016-10-11T02:18:38.271Z,98.97
2016-10-11T02:19:18.806Z,99.16
2016-10-11T02:19:59.342Z,98.97
2016-10-11T02:20:39.887Z,99.06
2016-10-11T02:21:20.415Z,99.63
2016-10-11T02:22:00.945Z,98.97
2016-10-11T02:22:41.470Z,98.87
2016-10-11T02:23:22.010Z,99.06
2016-10-11T02:24:02.544Z,99.63
2016-10-11T02:24:43.083Z,98.97
2016-10-11T02:25:23.617Z,99.06
2016-10-11T02:26:04.146Z,98.97
2016-10-11T02:26:44.684Z,98.97
2016-10-11T02:27:25.220Z,99.63
2016-10-11T02:28:05.761Z,98.97
2016-10-11T02:28:46.296Z,99.06
2016-10-11T02:29:26.832Z,99.16
2016-10-11T02:30:07.367Z,99.06
2016-10-11T02:30:47.898Z,99.06
2016-10-11T02:31:28.435Z,99.06
2016-10-11T02:32:08.981Z,99.16
2016-10-11T02:32:49.515Z,98.97
2016-10-11T02:33:30.052Z,98.97
2016-10-11T02:34:10.595Z,99.06
2016-10-11T02:34:51.129Z,98.97
2016-10-11T02:35:31.669Z,98.97
2016-10-11T02:36:12.204Z,99.16
2016-10-11T02:36:52.736Z,98.97
2016-10-11T02:37:33.277Z,98.97
2016-10-11T02:38:13.803Z,99.16
2016-10-11T02:38:54.339Z,98.59
2016-10-11T02:39:34.872Z,99.16
2016-10-11T02:40:15.407Z,98.87
2016-10-11T02:40:55.944Z,98.68
2016-10-11T02:41:36.490Z,99.44
2016-10-11T02:42:17.025Z,99.63
2016-10-11T02:42:57.563Z,99.16
2016-10-11T02:43:38.098Z,99.35
2016-10-11T02:44:18.631Z,99.06
2016-10-11T02:44:59.167Z,99.06
2016-10-11T02:45:39.689Z,99.35
2016-10-11T02:46:20.226Z,99.35
2016-10-11T02:47:00.759Z,99.35
2016-10-11T02:47:41.289Z,99.35
2016-10-11T02:48:21.831Z,99.35
2016-10-11T02:49:02.371Z,99.35
2016-10-11T02:49:42.895Z,99.35
2016-10-11T02:50:24.149Z,99.35
2016-10-11T02:51:03.957Z,99.44
2016-10-11T02:51:44.496Z,99.44
2016-10-11T02:52:25.016Z,99.63
2016-10-11T02:53:05.548Z,99.26
2016-10-11T02:53:46.083Z,99.26
2016-10-11T02:54:26.626Z,99.26
2016-10-11T02:55:07.162Z,99.44
2016-10-11T02:55:47.698Z,99.44
2016-10-11T02:56:28.232Z,99.26
2016-10-11T02:57:08.772Z,99.26
2016-10-11T02:57:49.307Z,99.54
2016-10-11T02:58:29.852Z,99.44
2016-10-11T02:59:10.389Z,99.06
2016-10-11T02:59:50.924Z,99.63
2016-10-11T03:00:31.454Z,99.63
2016-10-11T03:01:11.990Z,99.63
2016-10-11T03:01:52.523Z,99.06
2016-10-11T03:02:33.059Z,99.26
2016-10-11T03:03:13.600Z,99.73
2016-10-11T03:03:54.137Z,99.16
2016-10-11T03:04:34.679Z,99.35
2016-10-11T03:05:15.220Z,99.54
2016-10-11T03:05:55.756Z,99.44
2016-10-11T03:06:36.286Z,99.63
2016-10-11T03:07:16.825Z,99.44
2016-10-11T03:07:57.353Z,99.35
2016-10-11T03:08:37.898Z,99.26
2016-10-11T03:09:18.433Z,99.16
2016-10-11T03:09:58.972Z,99.26
2016-10-11T03:10:39.500Z,99.26
2016-10-11T03:11:20.031Z,99.26
2016-10-11T03:12:00.567Z,99.16
2016-10-11T03:12:41.107Z,99.26
2016-10-11T03:13:21.646Z,99.63
2016-10-11T03:14:02.186Z,99.63
2016-10-11T03:14:42.727Z,99.16
2016-10-11T03:15:23.263Z,99.54
2016-10-11T03:16:03.794Z,99.63
2016-10-11T03:16:44.325Z,99.44
2016-10-11T03:17:24.859Z,99.26
2016-10-11T03:18:05.398Z,99.35
2016-10-11T03:18:45.933Z,99.35
2016-10-11T03:19:26.458Z,99.35
2016-10-11T03:20:06.988Z,99.35
2016-10-11T03:20:47.527Z,99.16
2016-10-11T03:21:28.110Z,99.26
2016-10-11T03:22:08.637Z,99.26
2016-10-11T03:22:49.176Z,99.16
2016-10-11T03:23:29.717Z,99.35
2016-10-11T03:24:10.249Z,99.35
2016-10-11T03:24:50.788Z,99.16
2016-10-11T03:25:31.314Z,99.35
2016-10-11T03:26:11.843Z,99.35
2016-10-11T03:26:52.380Z,99.16
2016-10-11T03:27:32.917Z,99.16
2016-10-11T03:28:13.450Z,99.63
2016-10-11T03:28:53.992Z,99.63
2016-10-11T03:29:34.528Z,99.44
2016-10-11T03:30:15.076Z,99.44
2016-10-11T03:30:55.618Z,99.63
2016-10-11T03:31:36.131Z,99.44
2016-10-11T03:32:16.625Z,99.26
2016-10-11T03:32:57.127Z,99.44
2016-10-11T03:33:37.654Z,99.73
2016-10-11T03:34:18.169Z,99.26
2016-10-11T03:34:58.695Z,99.35
2016-10-11T03:35:39.237Z,99.54
2016-10-11T03:36:19.770Z,99.63
2016-10-11T03:37:00.306Z,99.26
2016-10-11T03:37:40.830Z,99.63
2016-10-11T03:38:21.361Z,99.63
2016-10-11T03:39:01.899Z,99.35
2016-10-11T03:39:42.437Z,99.44
2016-10-11T03:40:22.982Z,99.54
2016-10-11T03:41:03.510Z,99.26
2016-10-11T03:41:44.045Z,99.99
2016-10-11T03:42:24.580Z,99.82
2016-10-11T03:43:05.109Z,99.99
2016-10-11T03:43:45.639Z,99.99
2016-10-11T03:44:26.181Z,99.99
2016-10-11T03:45:06.708Z,99.82
2016-10-11T03:45:47.239Z,99.99
2016-10-11T03:46:27.768Z,99.91
2016-10-11T03:47:08.305Z,99.99
2016-10-11T03:47:48.828Z,99.99
2016-10-11T03:48:29.369Z,99.91
2016-10-11T03:49:09.912Z,99.82
2016-10-11T03:49:50.473Z,99.99
2016-10-11T03:50:31.015Z,99.99
2016-10-11T03:51:11.548Z,99.99
2016-10-11T03:51:52.082Z,99.99
2016-10-11T03:52:32.611Z,99.99
2016-10-11T03:53:13.151Z,99.99
2016-10-11T03:53:53.695Z,99.82
2016-10-11T03:54:34.238Z,99.99
2016-10-11T03:55:14.788Z,99.82
2016-10-11T03:55:55.366Z,99.99
2016-10-11T03:56:35.922Z,99.99
2016-10-11T03:57:16.448Z,99.82
2016-10-11T03:57:56.971Z,99.82
2016-10-11T03:58:37.508Z,99.82
2016-10-11T03:59:18.060Z,99.99
2016-10-11T03:59:58.621Z,99.99
2016-10-11T04:00:39.139Z,99.82
2016-10-11T04:01:19.668Z,99.99
2016-10-11T04:02:00.209Z,99.99
2016-10-11T04:02:40.740Z,99.99
2016-10-11T04:03:21.279Z,99.54
2016-10-11T04:04:01.821Z,99.99
2016-10-11T04:04:42.347Z,99.99
2016-10-11T04:05:22.879Z,99.63
2016-10-11T04:06:03.407Z,99.44
2016-10-11T04:06:43.946Z,99.49
2016-10-11T04:07:24.665Z,99.63
2016-10-11T04:08:05.291Z,99.68
2016-10-11T04:08:45.825Z,99.54
2016-10-11T04:09:26.355Z,99.4
2016-10-11T04:10:06.895Z,99.49
2016-10-11T04:10:47.428Z,99.63
2016-10-11T04:11:27.970Z,99.63
2016-10-11T04:12:08.502Z,99.68
2016-10-11T04:12:49.045Z,99.26
2016-10-11T04:13:29.579Z,99.58
2016-10-11T04:14:10.234Z,99.44
2016-10-11T04:14:50.770Z,99.58
2016-10-11T04:15:31.325Z,99.68
2016-10-11T04:16:11.850Z,99.58
2016-10-11T04:16:52.384Z,99.4
2016-10-11T04:17:32.911Z,99.49
2016-10-11T04:18:13.468Z,99.4
2016-10-11T04:18:53.999Z,99.58
2016-10-11T04:19:34.537Z,99.77
2016-10-11T04:20:15.066Z,99.77
2016-10-11T04:20:55.713Z,99.3
2016-10-11T04:21:36.262Z,99.21
2016-10-11T04:22:16.809Z,99.4
2016-10-11T04:22:57.349Z,99.77
2016-10-11T04:23:37.887Z,99.4
2016-10-11T04:24:18.428Z,99.49
2016-10-11T04:24:58.947Z,99.4
2016-10-11T04:25:39.480Z,99.77
2016-10-11T04:26:20.009Z,99.49
2016-10-11T04:27:00.546Z,99.68
2016-10-11T04:27:41.091Z,99.49
2016-10-11T04:28:21.623Z,99.58
2016-10-11T04:29:02.148Z,99.58
2016-10-11T04:29:42.697Z,99.58
2016-10-11T04:30:23.230Z,99.4
2016-10-11T04:31:03.768Z,99.77
2016-10-11T04:31:44.312Z,99.58
2016-10-11T04:32:24.853Z,99.21
2016-10-11T04:33:05.384Z,99.77
2016-10-11T04:33:45.920Z,99.21
2016-10-11T04:34:26.457Z,99.68
2016-10-11T04:35:06.989Z,99.58
2016-10-11T04:35:47.523Z,99.49
2016-10-11T04:36:28.061Z,99.49
2016-10-11T04:37:08.599Z,99.49
2016-10-11T04:37:49.162Z,99.3
2016-10-11T04:38:29.706Z,99.58
2016-10-11T04:39:10.221Z,99.68
2016-10-11T04:39:50.753Z,99.11
2016-10-11T04:40:31.298Z,99.11
2016-10-11T04:41:11.868Z,99.21
2016-10-11T04:41:52.406Z,99.68
2016-10-11T04:42:32.941Z,99.11
2016-10-11T04:43:13.478Z,99.21
2016-10-11T04:43:54.007Z,99.3
2016-10-11T04:44:34.549Z,99.58
2016-10-11T04:45:15.082Z,99.3
2016-10-11T04:45:55.617Z,99.77
2016-10-11T04:46:36.146Z,99.11
2016-10-11T04:47:16.686Z,99.11
2016-10-11T04:47:57.222Z,99.11
2016-10-11T04:48:37.785Z,99.3
2016-10-11T04:49:18.325Z,99.21
2016-10-11T04:49:58.864Z,99.68
2016-10-11T04:50:39.398Z,99.11
2016-10-11T04:51:19.932Z,99.49
2016-10-11T04:52:00.470Z,99.68
2016-10-11T04:52:40.991Z,99.21
2016-10-11T04:53:21.536Z,99.77
2016-10-11T04:54:02.072Z,99.77
2016-10-11T04:54:42.611Z,99.3
2016-10-11T04:55:23.185Z,99.77
2016-10-11T04:56:03.736Z,99.49
2016-10-11T04:56:44.274Z,99.68
2016-10-11T04:57:24.821Z,99.58
2016-10-11T04:58:05.346Z,99.68
2016-10-11T04:58:45.871Z,99.4
2016-10-11T04:59:26.400Z,99.49
2016-10-11T05:00:06.938Z,99.68
2016-10-11T05:00:47.477Z,99.68
2016-10-11T05:01:28.019Z,99.68
2016-10-11T05:02:08.539Z,99.3
2016-10-11T05:02:49.061Z,99.49
2016-10-11T05:03:29.611Z,99.49
2016-10-11T05:04:10.141Z,99.58
2016-10-11T05:04:50.681Z,99.99
2016-10-11T05:05:31.204Z,99.99
2016-10-11T05:06:11.748Z,99.99
2016-10-11T05:06:52.281Z,99.99
2016-10-11T05:07:32.820Z,99.99
2016-10-11T05:08:13.357Z,99.3
2016-10-11T05:08:53.893Z,99.3
2016-10-11T05:09:34.427Z,99.87
2016-10-11T05:10:14.959Z,99.4
2016-10-11T05:10:55.489Z,99.49
2016-10-11T05:11:36.037Z,99.4
2016-10-11T05:12:16.572Z,99.58
2016-10-11T05:12:57.111Z,99.68
2016-10-11T05:13:37.656Z,99.68
2016-10-11T05:14:18.198Z,99.58
2016-10-11T05:14:58.736Z,99.49
2016-10-11T05:15:39.269Z,99.4
2016-10-11T05:16:19.808Z,99.58
2016-10-11T05:17:00.339Z,99.58
2016-10-11T05:17:40.864Z,99.58
2016-10-11T05:18:21.400Z,99.49
2016-10-11T05:19:01.940Z,99.26
2016-10-11T05:19:42.461Z,99.87
2016-10-11T05:20:22.995Z,99.99
2016-10-11T05:21:03.556Z,99.99
2016-10-11T05:21:44.089Z,99.99
2016-10-11T05:22:24.617Z,99.99
2016-10-11T05:23:05.147Z,99.99
2016-10-11T05:23:45.686Z,99.99
2016-10-11T05:24:26.212Z,99.87
2016-10-11T05:25:06.751Z,99.99
2016-10-11T05:25:47.293Z,99.99
2016-10-11T05:26:27.826Z,99.99
2016-10-11T05:27:08.368Z,99.99
2016-10-11T05:27:48.907Z,99.99
2016-10-11T05:28:29.441Z,99.99
2016-10-11T05:29:09.974Z,99.99
2016-10-11T05:29:50.534Z,99.99
2016-10-11T05:30:31.044Z,99.99
2016-10-11T05:31:11.584Z,99.99
2016-10-11T05:31:52.147Z,99.99
2016-10-11T05:32:32.684Z,99.99
2016-10-11T05:33:13.225Z,99.99
2016-10-11T05:33:53.753Z,99.99
2016-10-11T05:34:34.315Z,99.99
2016-10-11T05:35:14.864Z,99.99
2016-10-11T05:35:55.404Z,99.99
2016-10-11T05:36:35.941Z,99.99
2016-10-11T05:37:16.493Z,99.99
2016-10-11T05:37:57.023Z,99.99
2016-10-11T05:38:37.568Z,99.99
2016-10-11T05:39:18.112Z,99.99
2016-10-11T05:39:58.639Z,99.99
2016-10-11T05:40:39.168Z,99.99
2016-10-11T05:41:19.706Z,99.99
2016-10-11T05:42:00.231Z,99.99
2016-10-11T05:42:40.823Z,99.99
2016-10-11T05:43:21.362Z,99.99
2016-10-11T05:44:01.912Z,99.99
2016-10-11T05:44:42.452Z,99.99
2016-10-11T05:45:22.988Z,99.99
2016-10-11T05:46:03.520Z,99.99
2016-10-11T05:46:44.057Z,99.99
2016-10-11T05:47:24.565Z,99.99
2016-10-11T05:48:05.098Z,99.99
2016-10-11T05:48:45.614Z,99.99
2016-10-11T05:49:26.149Z,99.99
2016-10-11T05:50:06.690Z,99.99
2016-10-11T05:50:47.204Z,99.99
2016-10-11T05:51:27.728Z,99.99
2016-10-11T05:52:08.240Z,99.99
2016-10-11T05:52:48.776Z,99.99
2016-10-11T05:53:29.321Z,99.99
2016-10-11T05:54:09.848Z,99.73
2016-10-11T05:54:50.381Z,99.99
2016-10-11T05:55:30.920Z,99.99
2016-10-11T05:56:11.452Z,99.99
2016-10-11T05:56:51.977Z,99.99
2016-10-11T05:57:32.518Z,99.99
2016-10-11T05:58:13.062Z,99.99
2016-10-11T05:58:53.600Z,99.99
2016-10-11T05:59:34.137Z,99.99
2016-10-11T06:00:14.673Z,99.99
2016-10-11T06:00:55.197Z,99.99
2016-10-11T06:01:35.732Z,99.99
2016-10-11T06:02:16.266Z,99.99
2016-10-11T06:02:56.790Z,99.99
2016-10-11T06:03:37.322Z,99.99
2016-10-11T06:04:17.868Z,99.99
2016-10-11T06:04:58.398Z,99.99
2016-10-11T06:05:38.937Z,99.99
2016-10-11T06:06:19.476Z,99.99
2016-10-11T06:07:00.011Z,99.99
2016-10-11T06:07:40.542Z,99.99
2016-10-11T06:08:21.076Z,99.99
2016-10-11T06:09:01.609Z,99.99
2016-10-11T06:09:42.144Z,99.99
2016-10-11T06:10:22.679Z,99.99
2016-10-11T06:11:03.214Z,99.99
2016-10-11T06:11:43.747Z,99.99
2016-10-11T06:12:24.280Z,99.99
2016-10-11T06:13:04.814Z,99.99
2016-10-11T06:13:45.360Z,99.77
2016-10-11T06:14:25.902Z,99.99
2016-10-11T06:15:06.447Z,99.99
2016-10-11T06:15:46.981Z,99.99
2016-10-11T06:16:27.501Z,99.87
2016-10-11T06:17:08.042Z,99.99
2016-10-11T06:17:48.560Z,99.99
2016-10-11T06:18:29.105Z,99.99
2016-10-11T06:19:09.640Z,99.99
2016-10-11T06:19:50.184Z,99.99
2016-10-11T06:20:30.730Z,99.99
2016-10-11T06:21:11.272Z,99.87
2016-10-11T06:21:51.780Z,99.87
2016-10-11T06:22:32.332Z,99.99
2016-10-11T06:23:12.861Z,99.99
2016-10-11T06:23:53.401Z,99.99
2016-10-11T06:24:33.930Z,99.99
2016-10-11T06:25:14.471Z,99.87
2016-10-11T06:25:54.995Z,99.99
2016-10-11T06:26:35.561Z,99.77
2016-10-11T06:27:16.098Z,99.87
2016-10-11T06:27:56.631Z,99.99
2016-10-11T06:28:37.140Z,99.99
2016-10-11T06:29:17.681Z,99.99
2016-10-11T06:29:58.210Z,99.99
2016-10-11T06:30:38.741Z,99.63
2016-10-11T06:31:19.292Z,99.99
2016-10-11T06:31:59.820Z,99.99
2016-10-11T06:32:40.360Z,99.99
2016-10-11T06:33:20.899Z,99.99
2016-10-11T06:34:01.435Z,99.99
2016-10-11T06:34:41.962Z,99.99
2016-10-11T06:35:22.494Z,99.99
2016-10-11T06:36:03.025Z,99.99
2016-10-11T06:36:43.565Z,99.99
2016-10-11T06:37:24.107Z,99.99
2016-10-11T06:38:04.646Z,99.99
2016-10-11T06:38:45.184Z,99.99
2016-10-11T06:39:25.716Z,99.99
2016-10-11T06:40:06.257Z,99.99
2016-10-11T06:40:46.792Z,99.99
2016-10-11T06:41:27.333Z,99.99
2016-10-11T06:42:07.875Z,99.99
2016-10-11T06:42:48.414Z,99.99
2016-10-11T06:43:28.955Z,99.99
2016-10-11T06:44:09.493Z,99.99
2016-10-11T06:44:50.021Z,99.99
2016-10-11T06:45:30.567Z,99.99
2016-10-11T06:46:11.098Z,99.99
2016-10-11T06:46:51.639Z,99.99
2016-10-11T06:47:32.178Z,99.99
2016-10-11T06:48:12.726Z,99.99
2016-10-11T06:48:53.267Z,99.99
2016-10-11T06:49:33.808Z,99.99
2016-10-11T06:50:14.349Z,99.99
2016-10-11T06:50:54.896Z,99.99
2016-10-11T06:51:35.449Z,99.99
2016-10-11T06:52:15.977Z,99.99
2016-10-11T06:52:56.514Z,99.99
2016-10-11T06:53:37.046Z,99.99
2016-10-11T06:54:17.589Z,99.99
2016-10-11T06:54:58.133Z,99.99
2016-10-11T06:55:38.672Z,99.99
2016-10-11T06:56:19.211Z,99.99
2016-10-11T06:56:59.740Z,99.99
2016-10-11T06:57:40.264Z,99.99
2016-10-11T06:58:20.809Z,99.99
2016-10-11T06:59:01.342Z,99.99
2016-10-11T06:59:41.892Z,99.99
2016-10-11T07:00:22.432Z,99.99
2016-10-11T07:01:02.977Z,99.99
2016-10-11T07:01:43.517Z,99.99
2016-10-11T07:02:24.046Z,99.99
2016-10-11T07:03:04.571Z,99.99
2016-10-11T07:03:45.116Z,99.99
2016-10-11T07:04:25.644Z,99.99
2016-10-11T07:05:06.182Z,99.99
2016-10-11T07:05:46.718Z,99.99
2016-10-11T07:06:27.260Z,99.99
2016-10-11T07:07:07.796Z,99.99
2016-10-11T07:07:48.336Z,99.99
2016-10-11T07:08:28.874Z,99.99
2016-10-11T07:09:09.415Z,99.99
2016-10-11T07:09:49.959Z,99.99
2016-10-11T07:10:30.497Z,99.99
2016-10-11T07:11:11.026Z,99.99
2016-10-11T07:11:51.550Z,99.99
2016-10-11T07:12:32.102Z,99.99
2016-10-11T07:13:12.630Z,99.99
2016-10-11T07:13:53.170Z,99.99
2016-10-11T07:14:33.711Z,99.99
2016-10-11T07:15:14.239Z,99.99
2016-10-11T07:15:54.778Z,99.99
2016-10-11T07:16:35.310Z,99.99
2016-10-11T07:17:15.854Z,99.99
2016-10-11T07:17:56.382Z,99.99
2016-10-11T07:18:36.908Z,99.99
2016-10-11T07:19:17.453Z,99.99
2016-10-11T07:19:57.983Z,99.99
2016-10-11T07:20:38.507Z,99.99
2016-10-11T07:21:19.037Z,99.99
2016-10-11T07:21:59.578Z,99.99
2016-10-11T07:22:40.111Z,99.99
2016-10-11T07:23:20.650Z,99.99
2016-10-11T07:24:01.194Z,99.99
2016-10-11T07:24:41.734Z,99.99
2016-10-11T07:25:22.274Z,99.99
2016-10-11T07:26:02.835Z,99.99
2016-10-11T07:26:43.364Z,99.99
2016-10-11T07:27:23.886Z,99.99
2016-10-11T07:28:04.451Z,99.99
2016-10-11T07:28:45.001Z,99.99
2016-10-11T07:29:25.554Z,99.99
2016-10-11T07:30:06.132Z,99.99
2016-10-11T07:30:46.684Z,99.99
2016-10-11T07:31:27.225Z,99.99
2016-10-11T07:32:07.780Z,99.99
2016-10-11T07:32:48.312Z,99.99
2016-10-11T07:33:28.854Z,99.99
2016-10-11T07:34:09.400Z,99.99
2016-10-11T07:34:49.939Z,99.99
2016-10-11T07:35:30.474Z,99.99
2016-10-11T07:36:11.006Z,99.99
2016-10-11T07:36:51.592Z,99.99
2016-10-11T07:37:32.131Z,99.99
2016-10-11T07:38:12.674Z,99.99
2016-10-11T07:38:53.218Z,99.99
2016-10-11T07:39:33.773Z,99.99
2016-10-11T07:40:14.324Z,99.99
2016-10-11T07:40:54.877Z,99.99
2016-10-11T07:41:35.402Z,99.99
2016-10-11T07:42:15.930Z,99.99
2016-10-11T07:42:56.463Z,99.68
2016-10-11T07:43:36.997Z,99.77
2016-10-11T07:44:17.532Z,99.87
2016-10-11T07:44:58.068Z,99.87
2016-10-11T07:45:38.604Z,99.77
2016-10-11T07:46:19.145Z,99.99
2016-10-11T07:46:59.674Z,99.97
2016-10-11T07:47:40.215Z,99.68
2016-10-11T07:48:20.752Z,99.87
2016-10-11T07:49:01.321Z,99.99
2016-10-11T07:49:41.896Z,99.99
2016-10-11T07:50:22.431Z,99.99
2016-10-11T07:51:02.988Z,99.87
2016-10-11T07:51:43.589Z,99.97
2016-10-11T07:52:24.135Z,99.87
2016-10-11T07:53:04.782Z,99.99
2016-10-11T07:53:45.322Z,99.87
2016-10-11T07:54:25.863Z,99.87
2016-10-11T07:55:06.419Z,99.99
2016-10-11T07:55:46.982Z,99.58
2016-10-11T07:56:27.575Z,99.64
2016-10-11T07:57:08.117Z,99.73
2016-10-11T07:57:48.655Z,99.73
2016-10-11T07:58:29.197Z,99.73
2016-10-11T07:59:09.763Z,99.26
2016-10-11T07:59:50.299Z,99.64
2016-10-11T08:00:30.841Z,99.73
2016-10-11T08:01:11.385Z,99.35
2016-10-11T08:01:51.927Z,99.73
2016-10-11T08:02:32.447Z,99.64
2016-10-11T08:03:12.985Z,99.16
2016-10-11T08:03:53.523Z,99.26
2016-10-11T08:04:34.117Z,99.07
2016-10-11T08:05:14.657Z,99.26
2016-10-11T08:05:55.198Z,99.35
2016-10-11T08:06:35.738Z,99.26
2016-10-11T08:07:16.271Z,99.26
2016-10-11T08:07:56.866Z,99.26
2016-10-11T08:08:37.401Z,98.31
2016-10-11T08:09:17.953Z,98.31
2016-10-11T08:09:58.484Z,98.69
2016-10-11T08:10:39.016Z,98.4
2016-10-11T08:11:19.542Z,98.5
2016-10-11T08:12:00.076Z,98.5
2016-10-11T08:12:40.666Z,97.92
2016-10-11T08:13:21.237Z,98.12
2016-10-11T08:14:01.766Z,97.83
2016-10-11T08:14:42.305Z,98.31
2016-10-11T08:15:22.894Z,98.4
2016-10-11T08:16:03.445Z,98.21
2016-10-11T08:16:43.955Z,98.5
2016-10-11T08:17:24.496Z,98.4
2016-10-11T08:18:05.094Z,98.69
2016-10-11T08:18:45.623Z,98.21
2016-10-11T08:19:26.150Z,98.5
2016-10-11T08:20:06.711Z,98.5
2016-10-11T08:20:47.306Z,98.31
2016-10-11T08:21:27.823Z,98.31
2016-10-11T08:22:08.364Z,98.31
2016-10-11T08:22:48.901Z,98.26
2016-10-11T08:23:29.424Z,98.4
2016-10-11T08:24:09.968Z,98.45
2016-10-11T08:24:50.518Z,97.88
2016-10-11T08:25:31.087Z,98.5
2016-10-11T08:26:11.623Z,98.45
2016-10-11T08:26:52.211Z,97.88
2016-10-11T08:27:32.767Z,98.16
2016-10-11T08:28:13.357Z,98.45
2016-10-11T08:28:53.928Z,98.26
2016-10-11T08:29:34.471Z,98.5
2016-10-11T08:30:15.016Z,98.07
2016-10-11T08:30:55.606Z,98.07
2016-10-11T08:31:36.187Z,98.35
2016-10-11T08:32:16.732Z,97.88
2016-10-11T08:32:57.253Z,98.45
2016-10-11T08:33:37.816Z,98.5
2016-10-11T08:34:18.342Z,98.45
2016-10-11T08:34:58.887Z,98.35
2016-10-11T08:35:39.412Z,98.69
2016-10-11T08:36:19.949Z,98.45
2016-10-11T08:37:00.475Z,97.92
2016-10-11T08:37:41.052Z,98.4
2016-10-11T08:38:21.589Z,98.5
2016-10-11T08:39:02.134Z,98.5
2016-10-11T08:39:42.672Z,97.92
2016-10-11T08:40:23.263Z,98.31
2016-10-11T08:41:03.807Z,98.21
2016-10-11T08:41:44.351Z,98.4
2016-10-11T08:42:24.913Z,98.21
2016-10-11T08:43:05.447Z,98.4
2016-10-11T08:43:45.995Z,98.69
2016-10-11T08:44:26.539Z,98.31
2016-10-11T08:45:07.103Z,98.31
2016-10-11T08:45:47.664Z,98.59
2016-10-11T08:46:28.201Z,98.31
2016-10-11T08:47:08.746Z,98.4
2016-10-11T08:47:49.280Z,98.5
2016-10-11T08:48:29.807Z,98.5
2016-10-11T08:49:10.360Z,98.4
2016-10-11T08:49:50.963Z,97.74
2016-10-11T08:50:31.511Z,98.02
2016-10-11T08:51:12.049Z,98.02
2016-10-11T08:51:52.597Z,98.12
2016-10-11T08:52:33.135Z,97.92
2016-10-11T08:53:13.682Z,98.21
2016-10-11T08:53:54.210Z,98.5
2016-10-11T08:54:34.793Z,98.21
2016-10-11T08:55:15.326Z,97.74
2016-10-11T08:55:55.862Z,98.02
2016-10-11T08:56:36.402Z,98.12
2016-10-11T08:57:16.940Z,97.92
2016-10-11T08:57:57.490Z,98.12
2016-10-11T08:58:38.029Z,98.02